sensor_id;sensor_type;location;lat;lon;timestamp;pressure;altitude;pressure_sealevel;temperature;humidity
70930;BME280;58588;48.102;19.682;2024-02-26T00:02:38;98696.63;;;11.73;100.00
70930;BME280;58588;48.102;19.682;2024-02-26T00:05:40;98692.69;;;11.76;100.00
70930;BME280;58588;48.102;19.682;2024-02-26T00:08:42;98696.44;;;11.68;100.00
70930;BME280;58588;48.102;19.682;2024-02-26T00:11:44;98688.38;;;11.62;100.00
70930;BME280;58588;48.102;19.682;2024-02-26T00:14:47;98675.66;;;11.69;100.00
70930;BME280;58588;48.102;19.682;2024-02-26T00:17:50;98676.34;;;11.51;100.00
70930;BME280;58588;48.102;19.682;2024-02-26T00:20:52;98679.03;;;11.64;100.00
70930;BME280;58588;48.102;19.682;2024-02-26T00:23:54;98684.88;;;11.48;100.00
70930;BME280;58588;48.102;19.682;2024-02-26T00:26:56;98687.75;;;11.66;100.00
70930;BME280;58588;48.102;19.682;2024-02-26T00:29:59;98678.66;;;11.47;100.00
70930;BME280;58588;48.102;19.682;2024-02-26T00:33:01;98669.50;;;11.55;100.00
70930;BME280;58588;48.102;19.682;2024-02-26T00:36:03;98658.06;;;11.60;100.00
70930;BME280;58588;48.102;19.682;2024-02-26T00:39:05;98659.91;;;11.66;100.00
70930;BME280;58588;48.102;19.682;2024-02-26T00:42:08;98645.59;;;11.65;100.00
70930;BME280;58588;48.102;19.682;2024-02-26T00:45:11;98651.44;;;11.49;100.00
70930;BME280;58588;48.102;19.682;2024-02-26T00:48:13;98658.69;;;11.55;100.00
70930;BME280;58588;48.102;19.682;2024-02-26T00:51:15;98653.75;;;11.52;100.00
70930;BME280;58588;48.102;19.682;2024-02-26T00:54:17;98653.88;;;11.70;100.00
70930;BME280;58588;48.102;19.682;2024-02-26T00:57:19;98647.41;;;11.78;100.00
70930;BME280;58588;48.102;19.682;2024-02-26T01:00:22;98652.69;;;11.53;100.00
70930;BME280;58588;48.102;19.682;2024-02-26T01:03:24;98648.44;;;11.77;100.00
70930;BME280;58588;48.102;19.682;2024-02-26T01:06:25;98647.88;;;11.62;100.00
70930;BME280;58588;48.102;19.682;2024-02-26T01:09:27;98658.69;;;11.55;100.00
70930;BME280;58588;48.102;19.682;2024-02-26T01:12:29;98649.28;;;11.77;100.00
70930;BME280;58588;48.102;19.682;2024-02-26T01:15:33;98634.00;;;11.58;100.00
70930;BME280;58588;48.102;19.682;2024-02-26T01:18:34;98637.38;;;11.92;100.00
70930;BME280;58588;48.102;19.682;2024-02-26T01:21:36;98630.78;;;11.88;100.00
70930;BME280;58588;48.102;19.682;2024-02-26T01:24:38;98626.63;;;11.85;100.00
70930;BME280;58588;48.102;19.682;2024-02-26T01:27:40;98627.03;;;11.89;100.00
70930;BME280;58588;48.102;19.682;2024-02-26T01:30:45;98625.38;;;11.81;100.00
70930;BME280;58588;48.102;19.682;2024-02-26T01:33:47;98616.97;;;12.02;100.00
70930;BME280;58588;48.102;19.682;2024-02-26T01:36:49;98623.84;;;11.98;100.00
70930;BME280;58588;48.102;19.682;2024-02-26T01:39:51;98619.81;;;12.14;100.00
70930;BME280;58588;48.102;19.682;2024-02-26T01:42:53;98617.06;;;12.21;100.00
70930;BME280;58588;48.102;19.682;2024-02-26T01:45:56;98616.47;;;12.19;100.00
70930;BME280;58588;48.102;19.682;2024-02-26T01:48:59;98616.56;;;12.05;100.00
70930;BME280;58588;48.102;19.682;2024-02-26T01:52:03;98614.59;;;12.19;100.00
70930;BME280;58588;48.102;19.682;2024-02-26T01:55:07;98608.66;;;12.04;100.00
70930;BME280;58588;48.102;19.682;2024-02-26T01:58:09;98619.41;;;12.11;100.00
70930;BME280;58588;48.102;19.682;2024-02-26T02:01:15;98617.97;;;12.08;100.00
70930;BME280;58588;48.102;19.682;2024-02-26T02:04:17;98618.91;;;12.27;100.00
70930;BME280;58588;48.102;19.682;2024-02-26T02:07:21;98619.72;;;12.27;100.00
70930;BME280;58588;48.102;19.682;2024-02-26T02:10:23;98620.31;;;12.36;100.00
70930;BME280;58588;48.102;19.682;2024-02-26T02:13:26;98614.44;;;12.39;100.00
70930;BME280;58588;48.102;19.682;2024-02-26T02:16:29;98618.59;;;12.42;100.00
70930;BME280;58588;48.102;19.682;2024-02-26T02:19:31;98617.03;;;12.27;100.00
70930;BME280;58588;48.102;19.682;2024-02-26T02:22:34;98619.78;;;12.46;100.00
70930;BME280;58588;48.102;19.682;2024-02-26T02:25:36;98616.09;;;12.40;100.00
70930;BME280;58588;48.102;19.682;2024-02-26T02:28:39;98616.72;;;12.42;100.00
70930;BME280;58588;48.102;19.682;2024-02-26T02:31:41;98631.19;;;12.23;100.00
70930;BME280;58588;48.102;19.682;2024-02-26T02:34:44;98626.69;;;12.10;100.00
70930;BME280;58588;48.102;19.682;2024-02-26T02:37:49;98632.63;;;11.80;100.00
70930;BME280;58588;48.102;19.682;2024-02-26T02:40:51;98631.25;;;12.10;100.00
70930;BME280;58588;48.102;19.682;2024-02-26T02:43:53;98637.16;;;12.00;100.00
70930;BME280;58588;48.102;19.682;2024-02-26T02:46:54;98629.22;;;12.05;100.00
70930;BME280;58588;48.102;19.682;2024-02-26T02:49:56;98629.47;;;12.28;100.00
70930;BME280;58588;48.102;19.682;2024-02-26T02:53:00;98628.88;;;12.26;100.00
70930;BME280;58588;48.102;19.682;2024-02-26T02:56:02;98632.34;;;12.02;100.00
70930;BME280;58588;48.102;19.682;2024-02-26T02:59:04;98626.66;;;12.17;100.00
70930;BME280;58588;48.102;19.682;2024-02-26T03:02:06;98631.09;;;12.04;100.00
70930;BME280;58588;48.102;19.682;2024-02-26T03:05:08;98631.56;;;11.95;100.00
70930;BME280;58588;48.102;19.682;2024-02-26T03:08:14;98626.78;;;11.97;100.00
70930;BME280;58588;48.102;19.682;2024-02-26T03:11:15;98620.00;;;12.19;100.00
70930;BME280;58588;48.102;19.682;2024-02-26T03:14:17;98615.59;;;12.25;100.00
70930;BME280;58588;48.102;19.682;2024-02-26T03:17:20;98611.84;;;11.94;100.00
70930;BME280;58588;48.102;19.682;2024-02-26T03:20:22;98614.31;;;11.96;100.00
70930;BME280;58588;48.102;19.682;2024-02-26T03:23:25;98606.25;;;12.21;100.00
70930;BME280;58588;48.102;19.682;2024-02-26T03:26:27;98614.19;;;12.16;100.00
70930;BME280;58588;48.102;19.682;2024-02-26T03:29:29;98599.44;;;12.18;100.00
70930;BME280;58588;48.102;19.682;2024-02-26T03:32:31;98604.16;;;11.91;100.00
70930;BME280;58588;48.102;19.682;2024-02-26T03:35:33;98604.25;;;12.10;100.00
70930;BME280;58588;48.102;19.682;2024-02-26T03:38:37;98612.31;;;12.16;100.00
70930;BME280;58588;48.102;19.682;2024-02-26T03:41:39;98609.56;;;12.23;100.00
70930;BME280;58588;48.102;19.682;2024-02-26T03:44:41;98606.66;;;12.24;100.00
70930;BME280;58588;48.102;19.682;2024-02-26T03:47:43;98603.78;;;12.19;100.00
70930;BME280;58588;48.102;19.682;2024-02-26T03:50:44;98601.44;;;12.23;100.00
70930;BME280;58588;48.102;19.682;2024-02-26T03:53:48;98598.09;;;12.27;100.00
70930;BME280;58588;48.102;19.682;2024-02-26T03:56:50;98603.28;;;12.29;100.00
70930;BME280;58588;48.102;19.682;2024-02-26T03:59:51;98599.16;;;12.26;100.00
70930;BME280;58588;48.102;19.682;2024-02-26T04:02:54;98606.63;;;12.31;100.00
70930;BME280;58588;48.102;19.682;2024-02-26T04:05:56;98604.47;;;12.40;100.00
70930;BME280;58588;48.102;19.682;2024-02-26T04:08:59;98606.13;;;12.09;100.00
70930;BME280;58588;48.102;19.682;2024-02-26T04:12:04;98602.78;;;12.14;100.00
70930;BME280;58588;48.102;19.682;2024-02-26T04:15:07;98599.16;;;12.26;100.00
70930;BME280;58588;48.102;19.682;2024-02-26T04:18:09;98608.25;;;12.32;100.00
70930;BME280;58588;48.102;19.682;2024-02-26T04:21:11;98609.03;;;12.39;100.00
70930;BME280;58588;48.102;19.682;2024-02-26T04:24:14;98607.22;;;12.33;100.00
70930;BME280;58588;48.102;19.682;2024-02-26T04:27:16;98608.97;;;12.21;100.00
70930;BME280;58588;48.102;19.682;2024-02-26T04:30:18;98608.56;;;12.17;100.00
70930;BME280;58588;48.102;19.682;2024-02-26T04:33:20;98599.19;;;12.20;100.00
70930;BME280;58588;48.102;19.682;2024-02-26T04:36:22;98605.91;;;12.11;100.00
70930;BME280;58588;48.102;19.682;2024-02-26T04:39:25;98602.72;;;11.89;100.00
70930;BME280;58588;48.102;19.682;2024-02-26T04:42:27;98603.16;;;11.79;100.00
70930;BME280;58588;48.102;19.682;2024-02-26T04:45:29;98601.69;;;11.90;100.00
70930;BME280;58588;48.102;19.682;2024-02-26T04:48:31;98598.72;;;11.98;100.00
70930;BME280;58588;48.102;19.682;2024-02-26T04:51:33;98586.56;;;12.14;100.00
70930;BME280;58588;48.102;19.682;2024-02-26T04:54:36;98589.31;;;12.07;100.00
70930;BME280;58588;48.102;19.682;2024-02-26T04:57:38;98599.25;;;12.13;100.00
70930;BME280;58588;48.102;19.682;2024-02-26T05:00:40;98598.16;;;11.89;100.00
70930;BME280;58588;48.102;19.682;2024-02-26T05:03:41;98592.09;;;11.94;100.00
70930;BME280;58588;48.102;19.682;2024-02-26T05:06:43;98602.00;;;12.07;100.00
70930;BME280;58588;48.102;19.682;2024-02-26T05:09:47;98595.72;;;12.13;100.00
70930;BME280;58588;48.102;19.682;2024-02-26T05:12:50;98601.59;;;12.03;100.00
70930;BME280;58588;48.102;19.682;2024-02-26T05:15:51;98599.03;;;12.15;100.00
70930;BME280;58588;48.102;19.682;2024-02-26T05:18:53;98599.06;;;12.08;100.00
70930;BME280;58588;48.102;19.682;2024-02-26T05:21:56;98596.06;;;11.91;100.00
70930;BME280;58588;48.102;19.682;2024-02-26T05:24:59;98601.91;;;11.88;100.00
70930;BME280;58588;48.102;19.682;2024-02-26T05:28:01;98605.84;;;11.86;100.00
70930;BME280;58588;48.102;19.682;2024-02-26T05:31:03;98615.44;;;11.82;100.00
70930;BME280;58588;48.102;19.682;2024-02-26T05:34:05;98617.47;;;11.35;100.00
70930;BME280;58588;48.102;19.682;2024-02-26T05:37:07;98621.41;;;11.32;100.00
70930;BME280;58588;48.102;19.682;2024-02-26T05:40:11;98614.50;;;11.49;100.00
70930;BME280;58588;48.102;19.682;2024-02-26T05:43:13;98612.09;;;11.28;100.00
70930;BME280;58588;48.102;19.682;2024-02-26T05:46:16;98607.28;;;11.37;100.00
70930;BME280;58588;48.102;19.682;2024-02-26T05:49:18;98610.66;;;11.77;100.00
70930;BME280;58588;48.102;19.682;2024-02-26T05:52:20;98613.91;;;11.92;100.00
70930;BME280;58588;48.102;19.682;2024-02-26T05:55:23;98615.59;;;11.87;100.00
70930;BME280;58588;48.102;19.682;2024-02-26T05:58:25;98621.47;;;11.70;100.00
70930;BME280;58588;48.102;19.682;2024-02-26T06:01:27;98626.47;;;11.67;100.00
70930;BME280;58588;48.102;19.682;2024-02-26T06:04:29;98607.44;;;11.93;100.00
70930;BME280;58588;48.102;19.682;2024-02-26T06:07:30;98605.75;;;11.99;100.00
70930;BME280;58588;48.102;19.682;2024-02-26T06:10:34;98622.50;;;11.83;100.00
70930;BME280;58588;48.102;19.682;2024-02-26T06:13:36;98629.56;;;11.77;100.00
70930;BME280;58588;48.102;19.682;2024-02-26T06:16:38;98636.19;;;11.74;100.00
70930;BME280;58588;48.102;19.682;2024-02-26T06:19:39;98619.59;;;11.71;100.00
70930;BME280;58588;48.102;19.682;2024-02-26T06:22:41;98616.19;;;11.95;100.00
70930;BME280;58588;48.102;19.682;2024-02-26T06:25:45;98622.03;;;11.86;100.00
70930;BME280;58588;48.102;19.682;2024-02-26T06:28:48;98621.72;;;12.07;100.00
70930;BME280;58588;48.102;19.682;2024-02-26T06:31:50;98612.72;;;12.20;100.00
70930;BME280;58588;48.102;19.682;2024-02-26T06:34:52;98620.00;;;12.19;100.00
70930;BME280;58588;48.102;19.682;2024-02-26T06:37:54;98629.09;;;12.25;100.00
70930;BME280;58588;48.102;19.682;2024-02-26T06:40:57;98625.47;;;12.38;100.00
70930;BME280;58588;48.102;19.682;2024-02-26T06:43:59;98633.09;;;12.47;100.00
70930;BME280;58588;48.102;19.682;2024-02-26T06:47:01;98627.84;;;12.52;100.00
70930;BME280;58588;48.102;19.682;2024-02-26T06:50:04;98625.31;;;12.57;100.00
70930;BME280;58588;48.102;19.682;2024-02-26T06:53:06;98624.50;;;12.82;100.00
70930;BME280;58588;48.102;19.682;2024-02-26T06:56:09;98626.59;;;12.55;100.00
70930;BME280;58588;48.102;19.682;2024-02-26T06:59:11;98629.91;;;12.57;100.00
70930;BME280;58588;48.102;19.682;2024-02-26T07:02:13;98624.06;;;12.85;100.00
70930;BME280;58588;48.102;19.682;2024-02-26T07:05:16;98632.59;;;12.82;100.00
70930;BME280;58588;48.102;19.682;2024-02-26T07:08:18;98635.94;;;12.84;100.00
70930;BME280;58588;48.102;19.682;2024-02-26T07:11:21;98634.81;;;12.92;100.00
70930;BME280;58588;48.102;19.682;2024-02-26T07:14:23;98631.84;;;13.18;100.00
70930;BME280;58588;48.102;19.682;2024-02-26T07:17:25;98630.63;;;13.21;100.00
70930;BME280;58588;48.102;19.682;2024-02-26T07:20:27;98629.22;;;13.11;100.00
70930;BME280;58588;48.102;19.682;2024-02-26T07:23:29;98637.25;;;13.18;100.00
70930;BME280;58588;48.102;19.682;2024-02-26T07:26:32;98631.91;;;13.11;100.00
70930;BME280;58588;48.102;19.682;2024-02-26T07:29:34;98640.19;;;13.17;100.00
70930;BME280;58588;48.102;19.682;2024-02-26T07:32:36;98633.47;;;13.01;100.00
70930;BME280;58588;48.102;19.682;2024-02-26T07:35:37;98630.63;;;13.21;100.00
70930;BME280;58588;48.102;19.682;2024-02-26T07:38:39;98624.78;;;13.17;100.00
70930;BME280;58588;48.102;19.682;2024-02-26T07:41:42;98630.66;;;13.14;100.00
70930;BME280;58588;48.102;19.682;2024-02-26T07:44:47;98635.97;;;13.46;100.00
70930;BME280;58588;48.102;19.682;2024-02-26T07:47:49;98630.31;;;13.29;100.00
70930;BME280;58588;48.102;19.682;2024-02-26T07:50:52;98639.56;;;13.21;100.00
70930;BME280;58588;48.102;19.682;2024-02-26T07:53:54;98632.88;;;13.42;100.00
70930;BME280;58588;48.102;19.682;2024-02-26T07:56:57;98638.91;;;13.62;100.00
70930;BME280;58588;48.102;19.682;2024-02-26T07:59:59;98640.00;;;13.55;100.00
70930;BME280;58588;48.102;19.682;2024-02-26T08:03:01;98641.59;;;13.62;100.00
70930;BME280;58588;48.102;19.682;2024-02-26T08:06:03;98637.16;;;13.86;100.00
70930;BME280;58588;48.102;19.682;2024-02-26T08:09:05;98643.00;;;13.83;100.00
70930;BME280;58588;48.102;19.682;2024-02-26T08:12:09;98643.66;;;13.97;100.00
70930;BME280;58588;48.102;19.682;2024-02-26T08:15:10;98639.47;;;13.83;100.00
70930;BME280;58588;48.102;19.682;2024-02-26T08:18:12;98640.25;;;14.02;100.00
70930;BME280;58588;48.102;19.682;2024-02-26T08:21:14;98635.84;;;14.19;100.00
70930;BME280;58588;48.102;19.682;2024-02-26T08:24:17;98643.13;;;14.07;100.00
70930;BME280;58588;48.102;19.682;2024-02-26T08:27:20;98648.88;;;14.29;100.00
70930;BME280;58588;48.102;19.682;2024-02-26T08:30:22;98641.53;;;14.48;100.00
70930;BME280;58588;48.102;19.682;2024-02-26T08:33:23;98646.59;;;14.56;100.00
70930;BME280;58588;48.102;19.682;2024-02-26T08:36:25;98645.59;;;15.04;100.00
70930;BME280;58588;48.102;19.682;2024-02-26T08:39:27;98645.84;;;15.37;100.00
70930;BME280;58588;48.102;19.682;2024-02-26T08:42:30;98649.38;;;15.49;100.00
70930;BME280;58588;48.102;19.682;2024-02-26T08:45:32;98645.84;;;15.25;100.00
70930;BME280;58588;48.102;19.682;2024-02-26T08:48:34;98654.56;;;15.39;100.00
70930;BME280;58588;48.102;19.682;2024-02-26T08:51:41;98660.47;;;15.48;100.00
70930;BME280;58588;48.102;19.682;2024-02-26T08:54:43;98664.84;;;15.49;100.00
70930;BME280;58588;48.102;19.682;2024-02-26T08:57:47;98666.38;;;15.33;100.00
70930;BME280;58588;48.102;19.682;2024-02-26T09:00:48;98664.47;;;15.57;100.00
70930;BME280;58588;48.102;19.682;2024-02-26T09:03:51;98666.63;;;15.43;100.00
70930;BME280;58588;48.102;19.682;2024-02-26T09:06:53;98668.72;;;15.53;100.00
70930;BME280;58588;48.102;19.682;2024-02-26T09:09:55;98676.06;;;15.41;100.00
70930;BME280;58588;48.102;19.682;2024-02-26T09:12:58;98667.09;;;15.17;100.00
70930;BME280;58588;48.102;19.682;2024-02-26T09:16:00;98672.50;;;15.29;100.00
70930;BME280;58588;48.102;19.682;2024-02-26T09:19:03;98667.81;;;15.24;100.00
70930;BME280;58588;48.102;19.682;2024-02-26T09:22:05;98668.97;;;15.28;100.00
70930;BME280;58588;48.102;19.682;2024-02-26T09:25:08;98667.44;;;15.44;100.00
70930;BME280;58588;48.102;19.682;2024-02-26T09:28:11;98666.88;;;15.42;100.00
70930;BME280;58588;48.102;19.682;2024-02-26T09:31:13;98665.03;;;15.59;100.00
70930;BME280;58588;48.102;19.682;2024-02-26T09:34:16;98664.72;;;15.44;100.00
70930;BME280;58588;48.102;19.682;2024-02-26T09:37:18;98672.28;;;15.53;100.00
70930;BME280;58588;48.102;19.682;2024-02-26T09:40:20;98670.28;;;15.49;100.00
70930;BME280;58588;48.102;19.682;2024-02-26T09:43:24;98671.91;;;15.85;100.00
70930;BME280;58588;48.102;19.682;2024-02-26T09:46:30;98672.16;;;15.84;100.00
70930;BME280;58588;48.102;19.682;2024-02-26T09:49:32;98677.16;;;16.03;100.00
70930;BME280;58588;48.102;19.682;2024-02-26T09:52:34;98668.16;;;16.15;100.00
70930;BME280;58588;48.102;19.682;2024-02-26T09:55:39;98673.47;;;16.10;100.00
70930;BME280;58588;48.102;19.682;2024-02-26T09:58:43;98676.69;;;15.95;100.00
70930;BME280;58588;48.102;19.682;2024-02-26T10:01:46;98679.25;;;16.42;99.64
70930;BME280;58588;48.102;19.682;2024-02-26T10:04:49;98678.06;;;16.49;98.92
70930;BME280;58588;48.102;19.682;2024-02-26T10:07:54;98676.09;;;16.62;96.96
70930;BME280;58588;48.102;19.682;2024-02-26T10:10:58;98676.88;;;16.74;94.94
70930;BME280;58588;48.102;19.682;2024-02-26T10:14:01;98678.84;;;16.95;95.56
70930;BME280;58588;48.102;19.682;2024-02-26T10:17:04;98677.38;;;16.59;99.42
70930;BME280;58588;48.102;19.682;2024-02-26T10:20:13;98675.31;;;16.95;97.27
70930;BME280;58588;48.102;19.682;2024-02-26T10:23:16;98672.50;;;16.90;97.56
70930;BME280;58588;48.102;19.682;2024-02-26T10:26:19;98675.81;;;16.92;98.63
70930;BME280;58588;48.102;19.682;2024-02-26T10:29:24;98679.28;;;16.87;98.09
70930;BME280;58588;48.102;19.682;2024-02-26T10:32:26;98671.19;;;16.47;98.61
70930;BME280;58588;48.102;19.682;2024-02-26T10:35:28;98664.97;;;16.35;97.82
70930;BME280;58588;48.102;19.682;2024-02-26T10:38:32;98666.22;;;16.89;95.80
70930;BME280;58588;48.102;19.682;2024-02-26T10:41:34;98664.06;;;16.91;97.30
70930;BME280;58588;48.102;19.682;2024-02-26T10:44:40;98660.97;;;16.99;96.50
70930;BME280;58588;48.102;19.682;2024-02-26T10:47:42;98653.97;;;17.81;96.01
70930;BME280;58588;48.102;19.682;2024-02-26T10:50:45;98658.59;;;17.80;91.56
70930;BME280;58588;48.102;19.682;2024-02-26T10:53:51;98660.31;;;17.86;92.54
70930;BME280;58588;48.102;19.682;2024-02-26T10:56:58;98663.91;;;17.92;93.14
70930;BME280;58588;48.102;19.682;2024-02-26T11:00:03;98653.91;;;17.37;93.21
70930;BME280;58588;48.102;19.682;2024-02-26T11:03:06;98652.16;;;17.48;89.92
70930;BME280;58588;48.102;19.682;2024-02-26T11:06:12;98657.34;;;17.49;93.15
70930;BME280;58588;48.102;19.682;2024-02-26T11:09:15;98652.34;;;17.63;90.79
70930;BME280;58588;48.102;19.682;2024-02-26T11:12:18;98653.00;;;17.15;92.29
70930;BME280;58588;48.102;19.682;2024-02-26T11:15:23;98652.78;;;17.16;92.38
70930;BME280;58588;48.102;19.682;2024-02-26T11:18:26;98654.19;;;16.85;93.39
70930;BME280;58588;48.102;19.682;2024-02-26T11:21:29;98641.25;;;16.47;95.19
70930;BME280;58588;48.102;19.682;2024-02-26T11:24:39;98647.84;;;16.79;93.87
70930;BME280;58588;48.102;19.682;2024-02-26T11:27:46;98652.03;;;16.42;97.05
70930;BME280;58588;48.102;19.682;2024-02-26T11:30:51;98651.97;;;16.53;95.98
70930;BME280;58588;48.102;19.682;2024-02-26T11:33:54;98643.56;;;16.38;95.53
70930;BME280;58588;48.102;19.682;2024-02-26T11:36:57;98646.69;;;16.47;94.71
70930;BME280;58588;48.102;19.682;2024-02-26T11:40:01;98642.19;;;16.69;94.21
70930;BME280;58588;48.102;19.682;2024-02-26T11:43:04;98642.53;;;16.73;94.31
70930;BME280;58588;48.102;19.682;2024-02-26T11:46:24;98641.97;;;16.71;93.72
70930;BME280;58588;48.102;19.682;2024-02-26T11:49:30;98647.50;;;16.76;93.02
70930;BME280;58588;48.102;19.682;2024-02-26T11:52:32;98635.81;;;16.75;94.59
70930;BME280;58588;48.102;19.682;2024-02-26T11:55:34;98635.84;;;16.64;94.99
70930;BME280;58588;48.102;19.682;2024-02-26T11:58:39;98635.72;;;16.70;94.61
70930;BME280;58588;48.102;19.682;2024-02-26T12:01:47;98631.75;;;16.78;93.31
70930;BME280;58588;48.102;19.682;2024-02-26T12:04:49;98629.00;;;17.11;93.12
70930;BME280;58588;48.102;19.682;2024-02-26T12:07:55;98625.22;;;16.96;92.88
70930;BME280;58588;48.102;19.682;2024-02-26T12:10:57;98634.84;;;17.20;92.42
70930;BME280;58588;48.102;19.682;2024-02-26T12:14:01;98642.44;;;17.35;90.58
70930;BME280;58588;48.102;19.682;2024-02-26T12:17:04;98635.53;;;17.27;90.74
70930;BME280;58588;48.102;19.682;2024-02-26T12:20:09;98640.66;;;17.07;93.24
70930;BME280;58588;48.102;19.682;2024-02-26T12:23:14;98636.53;;;17.04;92.41
70930;BME280;58588;48.102;19.682;2024-02-26T12:26:17;98636.34;;;17.28;92.23
70930;BME280;58588;48.102;19.682;2024-02-26T12:29:19;98628.72;;;17.30;93.02
70930;BME280;58588;48.102;19.682;2024-02-26T12:32:23;98626.34;;;17.33;91.29
70930;BME280;58588;48.102;19.682;2024-02-26T12:35:25;98622.22;;;17.31;91.85
70930;BME280;58588;48.102;19.682;2024-02-26T12:38:28;98618.72;;;17.74;88.97
70930;BME280;58588;48.102;19.682;2024-02-26T12:41:30;98619.97;;;17.66;89.85
70930;BME280;58588;48.102;19.682;2024-02-26T12:44:32;98628.66;;;18.07;85.35
70930;BME280;58588;48.102;19.682;2024-02-26T12:47:36;98628.47;;;17.70;86.38
70930;BME280;58588;48.102;19.682;2024-02-26T12:50:39;98627.34;;;17.88;87.86
70930;BME280;58588;48.102;19.682;2024-02-26T12:53:41;98624.28;;;18.06;87.92
70930;BME280;58588;48.102;19.682;2024-02-26T12:56:44;98629.50;;;17.86;87.83
70930;BME280;58588;48.102;19.682;2024-02-26T12:59:46;98633.16;;;17.97;86.33
70930;BME280;58588;48.102;19.682;2024-02-26T13:02:49;98627.97;;;17.73;88.13
70930;BME280;58588;48.102;19.682;2024-02-26T13:05:52;98628.25;;;17.72;87.22
70930;BME280;58588;48.102;19.682;2024-02-26T13:08:56;98630.56;;;18.07;85.45
70930;BME280;58588;48.102;19.682;2024-02-26T13:11:59;98636.78;;;18.02;86.23
70930;BME280;58588;48.102;19.682;2024-02-26T13:15:01;98633.56;;;17.83;86.62
70930;BME280;58588;48.102;19.682;2024-02-26T13:18:11;98640.31;;;18.25;84.27
70930;BME280;58588;48.102;19.682;2024-02-26T13:21:14;98640.53;;;18.23;85.66
70930;BME280;58588;48.102;19.682;2024-02-26T13:24:16;98641.66;;;18.49;84.33
70930;BME280;58588;48.102;19.682;2024-02-26T13:27:21;98646.19;;;18.97;81.36
70930;BME280;58588;48.102;19.682;2024-02-26T13:30:23;98642.22;;;18.78;83.32
70930;BME280;58588;48.102;19.682;2024-02-26T13:33:27;98654.50;;;18.27;84.34
70930;BME280;58588;48.102;19.682;2024-02-26T13:36:29;98659.41;;;18.52;82.37
70930;BME280;58588;48.102;19.682;2024-02-26T13:39:31;98659.47;;;18.30;83.46
70930;BME280;58588;48.102;19.682;2024-02-26T13:42:33;98647.75;;;18.07;82.31
70930;BME280;58588;48.102;19.682;2024-02-26T13:45:35;98655.81;;;17.97;85.82
70930;BME280;58588;48.102;19.682;2024-02-26T13:48:40;98663.75;;;17.77;84.05
70930;BME280;58588;48.102;19.682;2024-02-26T13:51:41;98661.28;;;17.75;85.09
70930;BME280;58588;48.102;19.682;2024-02-26T13:54:43;98655.91;;;17.63;85.61
70930;BME280;58588;48.102;19.682;2024-02-26T13:57:45;98667.84;;;17.79;85.39
70930;BME280;58588;48.102;19.682;2024-02-26T14:00:49;98662.41;;;17.62;86.17
70930;BME280;58588;48.102;19.682;2024-02-26T14:03:52;98673.13;;;17.69;86.31
70930;BME280;58588;48.102;19.682;2024-02-26T14:06:55;98663.75;;;17.60;86.05
70930;BME280;58588;48.102;19.682;2024-02-26T14:09:57;98666.78;;;17.80;84.19
70930;BME280;58588;48.102;19.682;2024-02-26T14:12:59;98660.09;;;17.71;85.55
70930;BME280;58588;48.102;19.682;2024-02-26T14:16:01;98657.63;;;17.70;85.56
70930;BME280;58588;48.102;19.682;2024-02-26T14:19:04;98653.09;;;17.97;83.21
70930;BME280;58588;48.102;19.682;2024-02-26T14:22:06;98655.88;;;17.80;84.92
70930;BME280;58588;48.102;19.682;2024-02-26T14:25:08;98655.38;;;17.83;85.49
70930;BME280;58588;48.102;19.682;2024-02-26T14:28:10;98654.50;;;17.61;87.12
70930;BME280;58588;48.102;19.682;2024-02-26T14:31:12;98650.81;;;17.11;90.90
70930;BME280;58588;48.102;19.682;2024-02-26T14:34:15;98647.72;;;17.25;91.53
70930;BME280;58588;48.102;19.682;2024-02-26T14:37:19;98654.78;;;17.43;91.43
70930;BME280;58588;48.102;19.682;2024-02-26T14:40:21;98651.22;;;17.59;92.63
70930;BME280;58588;48.102;19.682;2024-02-26T14:43:23;98652.81;;;17.38;93.60
70930;BME280;58588;48.102;19.682;2024-02-26T14:46:25;98659.69;;;17.41;93.78
70930;BME280;58588;48.102;19.682;2024-02-26T14:49:28;98646.72;;;17.31;93.70
70930;BME280;58588;48.102;19.682;2024-02-26T14:52:32;98648.25;;;17.44;93.96
70930;BME280;58588;48.102;19.682;2024-02-26T14:55:33;98648.22;;;17.60;94.12
70930;BME280;58588;48.102;19.682;2024-02-26T14:58:36;98654.97;;;17.75;92.48
70930;BME280;58588;48.102;19.682;2024-02-26T15:01:38;98655.41;;;18.32;90.90
70930;BME280;58588;48.102;19.682;2024-02-26T15:04:43;98658.34;;;18.80;88.99
70930;BME280;58588;48.102;19.682;2024-02-26T15:07:45;98654.22;;;19.09;85.18
70930;BME280;58588;48.102;19.682;2024-02-26T15:10:47;98655.16;;;19.72;84.23
70930;BME280;58588;48.102;19.682;2024-02-26T15:13:51;98656.47;;;19.22;83.71
70930;BME280;58588;48.102;19.682;2024-02-26T15:16:54;98665.41;;;19.08;84.40
70930;BME280;58588;48.102;19.682;2024-02-26T15:19:57;98651.06;;;19.28;83.29
70930;BME280;58588;48.102;19.682;2024-02-26T15:22:59;98654.53;;;19.18;83.61
70930;BME280;58588;48.102;19.682;2024-02-26T15:26:03;98650.84;;;18.97;85.44
70930;BME280;58588;48.102;19.682;2024-02-26T15:29:05;98658.41;;;18.63;86.08
70930;BME280;58588;48.102;19.682;2024-02-26T15:32:09;98661.47;;;18.66;85.86
70930;BME280;58588;48.102;19.682;2024-02-26T15:35:13;98658.53;;;18.46;85.69
70930;BME280;58588;48.102;19.682;2024-02-26T15:38:15;98656.97;;;18.01;87.47
70930;BME280;58588;48.102;19.682;2024-02-26T15:41:17;98646.38;;;17.83;89.19
70930;BME280;58588;48.102;19.682;2024-02-26T15:44:19;98651.00;;;17.82;88.65
70930;BME280;58588;48.102;19.682;2024-02-26T15:47:21;98644.75;;;17.26;91.36